Time;durP1;ratioP1;P1;durP2;ratioP2;P2;SDS_P1;SDS_P2;PMS_P1;PMS_P2;Temp;Humidity;BMP_temperature;BMP_pressure;BME280_temperature;BME280_humidity;BME280_pressure;Samples;Min_cycle;Max_cycle;Signal;HPM_P1;HPM_P2
2021/01/12 00:00:16;;;;;;;19.55;14.68;;;6.30;99.90;;;;;;6272074;22;20463;-84
2021/01/12 00:02:42;;;;;;;20.17;14.95;;;6.30;99.90;;;;;;6269455;22;20434;-83
2021/01/12 00:05:10;;;;;;;16.80;13.85;;;6.40;99.90;;;;;;6270809;22;20011;-84
2021/01/12 00:07:35;;;;;;;21.08;14.77;;;6.40;99.90;;;;;;6268543;22;20019;-83
2021/01/12 00:10:01;;;;;;;19.00;13.57;;;6.40;99.90;;;;;;6269589;22;20521;-85
2021/01/12 00:12:27;;;;;;;17.92;13.57;;;6.40;99.90;;;;;;6271682;22;20007;-84
2021/01/12 00:14:52;;;;;;;20.92;13.60;;;6.50;99.90;;;;;;6269844;22;20047;-83
2021/01/12 00:17:18;;;;;;;19.42;14.82;;;6.50;99.90;;;;;;6269835;22;20015;-84
2021/01/12 00:19:44;;;;;;;17.60;13.80;;;6.50;99.90;;;;;;6269483;22;20578;-84
2021/01/12 00:22:14;;;;;;;21.25;14.88;;;6.60;99.90;;;;;;6269508;22;20015;-84
2021/01/12 00:24:50;;;;;;;18.05;14.02;;;6.60;99.90;;;;;;6271683;22;20430;-84
2021/01/12 00:27:17;;;;;;;19.45;14.80;;;6.60;99.90;;;;;;6271342;22;20397;-85
2021/01/12 00:29:43;;;;;;;18.73;14.52;;;6.60;99.90;;;;;;6271266;22;20000;-84
2021/01/12 00:32:20;;;;;;;16.80;14.40;;;6.60;99.90;;;;;;6270543;22;20854;-84
2021/01/12 00:34:46;;;;;;;21.77;15.52;;;6.60;99.90;;;;;;6270656;22;20019;-85
2021/01/12 00:37:12;;;;;;;21.65;16.60;;;6.60;99.90;;;;;;6271107;22;20014;-84
2021/01/12 00:39:38;;;;;;;21.75;17.58;;;6.60;99.90;;;;;;6269292;22;20039;-85
2021/01/12 00:42:04;;;;;;;22.15;17.17;;;6.50;99.90;;;;;;6270828;22;20038;-84
2021/01/12 00:44:29;;;;;;;25.67;19.10;;;6.60;99.90;;;;;;6270527;22;20004;-84
2021/01/12 00:46:55;;;;;;;24.10;18.88;;;6.50;99.90;;;;;;6270494;22;20048;-85
2021/01/12 00:49:23;;;;;;;23.20;18.95;;;6.50;99.90;;;;;;6269183;22;20012;-86
2021/01/12 00:51:49;;;;;;;28.73;21.20;;;6.50;99.90;;;;;;6269714;22;20390;-84
2021/01/12 00:54:16;;;;;;;28.38;19.50;;;6.60;99.90;;;;;;6270595;22;20084;-86
2021/01/12 00:56:42;;;;;;;27.48;20.55;;;6.60;99.90;;;;;;6271324;22;20007;-86
2021/01/12 00:59:08;;;;;;;24.73;20.15;;;6.60;99.90;;;;;;6269491;22;20039;-85
2021/01/12 01:01:35;;;;;;;30.58;21.52;;;6.60;99.90;;;;;;6268846;22;20007;-84
2021/01/12 01:04:02;;;;;;;27.00;21.55;;;6.60;99.90;;;;;;6268946;22;20779;-84
2021/01/12 01:06:27;;;;;;;28.52;21.33;;;6.60;99.90;;;;;;6268587;22;20030;-86
2021/01/12 01:08:53;;;;;;;26.05;21.52;;;6.60;99.90;;;;;;6268718;22;20034;-85
2021/01/12 01:11:20;;;;;;;25.45;20.73;;;6.50;99.90;;;;;;6268480;22;20012;-85
2021/01/12 01:13:46;;;;;;;27.88;21.80;;;6.50;99.90;;;;;;6270813;22;20003;-86
2021/01/12 01:16:12;;;;;;;27.20;21.35;;;6.60;99.90;;;;;;6273955;22;20023;-85
2021/01/12 01:18:38;;;;;;;25.85;20.88;;;6.60;99.90;;;;;;6298872;22;20039;-86
2021/01/12 01:21:04;;;;;;;24.98;20.52;;;6.50;99.90;;;;;;6299646;22;20007;-86
2021/01/12 01:23:29;;;;;;;23.75;19.42;;;6.60;99.90;;;;;;6298970;22;20000;-86
2021/01/12 01:25:56;;;;;;;24.63;19.85;;;6.60;99.90;;;;;;6289405;22;20015;-85
2021/01/12 01:28:23;;;;;;;24.65;19.27;;;6.60;99.90;;;;;;6287781;22;20038;-85
2021/01/12 01:30:50;;;;;;;24.90;20.23;;;6.60;99.90;;;;;;6286363;22;20446;-85
2021/01/12 01:33:16;;;;;;;25.50;19.70;;;6.60;99.90;;;;;;6279841;22;20067;-85
2021/01/12 01:35:43;;;;;;;23.05;18.95;;;6.60;99.90;;;;;;6273992;22;20501;-85
2021/01/12 01:38:09;;;;;;;24.30;18.90;;;6.60;99.90;;;;;;6271019;22;20008;-85
2021/01/12 01:40:35;;;;;;;23.90;18.23;;;6.60;99.90;;;;;;6270124;22;20082;-84
2021/01/12 01:43:00;;;;;;;21.67;16.52;;;6.60;99.90;;;;;;6271016;22;20362;-84
2021/01/12 01:45:26;;;;;;;21.52;17.67;;;6.60;99.90;;;;;;6270689;22;20004;-84
2021/01/12 01:47:52;;;;;;;20.40;16.40;;;6.60;99.90;;;;;;6268652;22;20073;-84
2021/01/12 01:50:20;;;;;;;22.38;16.65;;;6.60;99.90;;;;;;6270239;22;19999;-84
2021/01/12 01:52:51;;;;;;;18.95;15.13;;;6.60;99.90;;;;;;6270186;22;20011;-84
2021/01/12 01:55:17;;;;;;;20.23;15.60;;;6.60;99.90;;;;;;6270624;22;20666;-85
2021/01/12 01:57:42;;;;;;;19.33;15.88;;;6.60;99.90;;;;;;6270376;22;20027;-84
2021/01/12 02:00:10;;;;;;;17.08;14.07;;;6.60;99.90;;;;;;6268587;22;20484;-84
2021/01/12 02:02:55;;;;;;;18.42;15.50;;;6.60;99.90;;;;;;6270611;22;20007;-84
2021/01/12 02:05:27;;;;;;;20.98;16.00;;;6.60;99.90;;;;;;6268358;22;20019;-84
2021/01/12 02:07:58;;;;;;;20.00;15.93;;;6.60;99.90;;;;;;6268396;22;20020;-84
2021/01/12 02:10:25;;;;;;;20.05;15.60;;;6.60;99.90;;;;;;6268495;22;20004;-84
2021/01/12 02:12:58;;;;;;;21.15;15.55;;;6.60;99.90;;;;;;6269640;22;20461;-84
2021/01/12 02:15:26;;;;;;;19.73;16.02;;;6.60;99.90;;;;;;6268496;22;20057;-84
2021/01/12 02:17:52;;;;;;;18.20;14.68;;;6.60;99.90;;;;;;6268197;22;20062;-84
2021/01/12 02:20:21;;;;;;;20.13;15.07;;;6.60;99.90;;;;;;6270025;22;20102;-85
2021/01/12 02:23:08;;;;;;;17.88;13.93;;;6.60;99.90;;;;;;6271149;22;20011;-84
2021/01/12 02:25:36;;;;;;;19.50;15.10;;;6.70;99.90;;;;;;6264271;22;20075;-83
2021/01/12 02:28:08;;;;;;;19.85;14.70;;;6.70;99.90;;;;;;6271321;22;20102;-84
2021/01/12 02:30:37;;;;;;;21.70;15.45;;;6.70;99.90;;;;;;6276420;22;20011;-84
2021/01/12 02:33:03;;;;;;;18.75;14.18;;;6.70;99.90;;;;;;6276202;22;20011;-84
2021/01/12 02:35:30;;;;;;;16.38;13.45;;;6.70;99.90;;;;;;6276069;22;20430;-84
2021/01/12 02:37:56;;;;;;;17.90;12.50;;;6.80;99.90;;;;;;6276263;22;20031;-85
2021/01/12 02:40:23;;;;;;;15.98;11.85;;;6.80;99.90;;;;;;6276152;22;20435;-84
2021/01/12 02:42:49;;;;;;;17.15;12.00;;;6.80;99.90;;;;;;6277989;22;19999;-85
2021/01/12 02:45:15;;;;;;;17.00;11.75;;;6.90;99.90;;;;;;6278136;22;20034;-84
2021/01/12 02:47:40;;;;;;;15.38;10.25;;;6.90;99.90;;;;;;6276117;22;20027;-85
2021/01/12 02:50:11;;;;;;;16.42;10.85;;;6.90;99.90;;;;;;6277607;22;20057;-84
2021/01/12 02:52:46;;;;;;;13.43;9.77;;;6.90;99.90;;;;;;6276324;22;20431;-84
2021/01/12 02:55:13;;;;;;;13.55;10.15;;;6.90;99.90;;;;;;6276589;22;20010;-84
2021/01/12 02:57:40;;;;;;;14.30;10.00;;;7.00;99.90;;;;;;6276808;22;20035;-84
2021/01/12 03:00:09;;;;;;;15.32;10.23;;;7.00;99.90;;;;;;6277912;22;20000;-84
2021/01/12 03:02:35;;;;;;;15.25;10.45;;;7.00;99.90;;;;;;6276079;22;20033;-84
2021/01/12 03:05:01;;;;;;;15.75;10.20;;;7.00;99.90;;;;;;6277743;22;20041;-83
2021/01/12 03:07:26;;;;;;;15.55;10.00;;;7.00;99.90;;;;;;6276921;22;20016;-84
2021/01/12 03:09:52;;;;;;;15.73;10.75;;;7.10;99.90;;;;;;6275439;22;20069;-84
2021/01/12 03:12:18;;;;;;;16.30;10.25;;;7.10;99.90;;;;;;6277198;22;20003;-85
2021/01/12 03:14:44;;;;;;;15.18;8.63;;;7.10;99.90;;;;;;6277415;22;20441;-85
2021/01/12 03:17:14;;;;;;;13.68;10.18;;;7.10;99.90;;;;;;6275074;22;20008;-84
2021/01/12 03:19:40;;;;;;;13.20;9.90;;;7.10;99.90;;;;;;6275916;22;20011;-84
2021/01/12 03:22:07;;;;;;;13.70;8.93;;;7.10;99.90;;;;;;6277676;22;20004;-85
2021/01/12 03:24:32;;;;;;;16.48;9.93;;;7.10;99.90;;;;;;6278096;22;20063;-84
2021/01/12 03:26:58;;;;;;;15.27;9.48;;;7.10;99.90;;;;;;6277468;22;20035;-84
2021/01/12 03:29:25;;;;;;;17.70;10.48;;;7.10;99.90;;;;;;6276894;22;20300;-85
2021/01/12 03:31:50;;;;;;;11.88;9.10;;;7.20;99.90;;;;;;6276723;22;20014;-85
2021/01/12 03:34:16;;;;;;;15.60;9.70;;;7.20;99.90;;;;;;6277536;22;20008;-85
2021/01/12 03:36:42;;;;;;;17.35;9.95;;;7.20;99.90;;;;;;6276230;22;20041;-85
2021/01/12 03:39:07;;;;;;;12.68;8.98;;;7.20;99.90;;;;;;6275744;22;20075;-85
2021/01/12 03:41:33;;;;;;;11.38;8.65;;;7.20;99.90;;;;;;6276061;22;20159;-85
2021/01/12 03:44:02;;;;;;;13.98;9.65;;;7.20;99.90;;;;;;6277604;22;20023;-86
2021/01/12 03:46:28;;;;;;;13.10;9.13;;;7.20;99.90;;;;;;6273990;22;20059;-85
2021/01/12 03:48:54;;;;;;;13.90;9.05;;;7.20;99.90;;;;;;6250088;22;20012;-86
2021/01/12 03:51:20;;;;;;;15.55;9.07;;;7.20;99.90;;;;;;6277227;22;20470;-85
2021/01/12 03:53:46;;;;;;;13.55;9.00;;;7.20;99.90;;;;;;6275713;22;20011;-85
2021/01/12 03:56:13;;;;;;;11.77;8.55;;;7.20;99.90;;;;;;6275854;22;20461;-83
2021/01/12 03:58:39;;;;;;;15.18;8.68;;;7.20;99.90;;;;;;6275416;22;20011;-85
2021/01/12 04:01:06;;;;;;;13.38;8.52;;;7.20;99.90;;;;;;6275176;22;20003;-85
2021/01/12 04:03:31;;;;;;;12.35;8.57;;;7.20;99.90;;;;;;6275595;22;20090;-85
2021/01/12 04:06:01;;;;;;;13.10;7.55;;;7.30;99.90;;;;;;6274926;22;20038;-84
2021/01/12 04:08:26;;;;;;;16.02;8.82;;;7.30;99.90;;;;;;6277258;22;20008;-83
2021/01/12 04:10:52;;;;;;;10.73;7.57;;;7.30;99.90;;;;;;6276916;22;20031;-85
2021/01/12 04:13:18;;;;;;;14.05;9.10;;;7.30;99.90;;;;;;6275500;22;20450;-84
2021/01/12 04:15:43;;;;;;;12.63;7.72;;;7.30;99.90;;;;;;6276972;22;20004;-84
2021/01/12 04:18:09;;;;;;;12.50;7.40;;;7.30;99.90;;;;;;6275284;22;20434;-85
2021/01/12 04:20:35;;;;;;;11.00;7.20;;;7.30;99.90;;;;;;6274501;22;20007;-84
2021/01/12 04:23:00;;;;;;;10.30;6.88;;;7.30;99.90;;;;;;6275101;22;20007;-84
2021/01/12 04:25:26;;;;;;;12.80;7.90;;;7.30;99.90;;;;;;6275672;22;20004;-85
2021/01/12 04:27:51;;;;;;;11.13;7.00;;;7.30;99.90;;;;;;6275038;22;20012;-84
2021/01/12 04:30:17;;;;;;;10.48;6.90;;;7.30;99.90;;;;;;6276902;22;20007;-83
2021/01/12 04:32:43;;;;;;;11.93;7.35;;;7.30;99.90;;;;;;6274799;22;20012;-85
2021/01/12 04:35:09;;;;;;;14.70;6.88;;;7.30;99.90;;;;;;6276451;22;20016;-84
2021/01/12 04:37:34;;;;;;;9.27;6.75;;;7.30;99.90;;;;;;6276647;22;20049;-85
2021/01/12 04:40:00;;;;;;;12.65;7.22;;;7.30;99.90;;;;;;6276810;22;20121;-85
2021/01/12 04:42:32;;;;;;;9.80;6.43;;;7.40;99.90;;;;;;6275205;22;20591;-84
2021/01/12 04:45:01;;;;;;;12.10;6.03;;;7.40;99.90;;;;;;6275493;22;20003;-85
2021/01/12 04:47:27;;;;;;;9.88;5.88;;;7.40;99.90;;;;;;6275032;22;20087;-85
2021/01/12 04:49:54;;;;;;;16.10;6.75;;;7.40;99.90;;;;;;6274837;22;20011;-86
2021/01/12 04:52:20;;;;;;;8.00;5.35;;;7.40;99.90;;;;;;6275044;22;20073;-85
2021/01/12 04:54:49;;;;;;;9.00;5.15;;;7.40;99.90;;;;;;6276573;22;19996;-85
2021/01/12 04:57:15;;;;;;;8.93;5.40;;;7.40;99.90;;;;;;6276819;22;20033;-85
2021/01/12 04:59:40;;;;;;;10.80;5.85;;;7.40;99.90;;;;;;6274904;22;20098;-84
2021/01/12 05:02:07;;;;;;;9.30;5.13;;;7.40;99.90;;;;;;6276797;22;20062;-85
2021/01/12 05:04:33;;;;;;;8.75;5.07;;;7.40;99.90;;;;;;6277095;22;20078;-85
2021/01/12 05:06:59;;;;;;;10.38;5.55;;;7.40;99.90;;;;;;6276770;22;20082;-84
2021/01/12 05:09:27;;;;;;;10.73;5.40;;;7.40;99.90;;;;;;6275688;22;20034;-85
2021/01/12 05:11:53;;;;;;;8.93;4.85;;;7.50;99.90;;;;;;6277205;22;20022;-85
2021/01/12 05:14:23;;;;;;;8.35;5.47;;;7.50;99.90;;;;;;6277126;22;20002;-84
2021/01/12 05:16:50;;;;;;;10.55;6.05;;;7.50;99.90;;;;;;6275384;22;20023;-86
2021/01/12 05:19:20;;;;;;;11.55;5.90;;;7.50;99.90;;;;;;6275368;22;20000;-85
2021/01/12 05:21:47;;;;;;;10.25;5.90;;;7.50;99.90;;;;;;6276872;22;20000;-85
2021/01/12 05:24:19;;;;;;;10.75;5.85;;;7.50;99.90;;;;;;6277144;22;20071;-85
2021/01/12 05:26:46;;;;;;;8.80;4.90;;;7.50;99.90;;;;;;6276806;22;20008;-84
2021/01/12 05:29:12;;;;;;;11.32;6.13;;;7.50;99.90;;;;;;6276954;22;20079;-84
2021/01/12 05:31:38;;;;;;;9.13;5.38;;;7.50;99.90;;;;;;6275327;22;20031;-84
2021/01/12 05:34:06;;;;;;;10.93;5.55;;;7.50;99.90;;;;;;6275126;22;20363;-85
2021/01/12 05:36:52;;;;;;;9.63;6.35;;;7.50;99.90;;;;;;6275027;22;20334;-85
2021/01/12 05:39:20;;;;;;;11.45;6.53;;;7.50;99.90;;;;;;6272412;22;20403;-84
2021/01/12 05:41:47;;;;;;;11.27;5.80;;;7.50;99.90;;;;;;6273349;22;20000;-86
2021/01/12 05:44:17;;;;;;;10.93;6.07;;;7.50;99.90;;;;;;6273829;22;20007;-84
2021/01/12 05:46:44;;;;;;;11.73;6.45;;;7.50;99.90;;;;;;6268408;22;20346;-85
2021/01/12 05:49:10;;;;;;;11.73;6.20;;;7.50;99.90;;;;;;6274774;22;20046;-87
2021/01/12 05:51:45;;;;;;;9.63;5.50;;;7.50;99.90;;;;;;6274066;22;20015;-87
2021/01/12 05:54:27;;;;;;;10.43;5.50;;;7.50;99.90;;;;;;6274826;22;20090;-86
2021/01/12 05:57:15;;;;;;;10.52;6.20;;;7.50;99.90;;;;;;6275774;22;20054;-86
2021/01/12 05:59:48;;;;;;;11.98;5.90;;;7.50;99.90;;;;;;6274037;22;20014;-84
2021/01/12 06:02:20;;;;;;;8.93;6.27;;;7.60;99.90;;;;;;6277112;22;20098;-86
2021/01/12 06:04:47;;;;;;;7.97;5.25;;;7.60;99.90;;;;;;6275436;22;20027;-83
2021/01/12 06:07:15;;;;;;;11.00;6.15;;;7.50;99.90;;;;;;6276767;22;20098;-85
2021/01/12 06:09:42;;;;;;;12.07;6.40;;;7.50;99.90;;;;;;6278121;22;20028;-85
2021/01/12 06:12:09;;;;;;;13.52;6.30;;;7.50;99.90;;;;;;6277707;22;20030;-85
2021/01/12 06:14:39;;;;;;;12.70;7.25;;;7.50;99.90;;;;;;6276470;22;20008;-84
2021/01/12 06:17:09;;;;;;;10.10;6.30;;;7.50;99.90;;;;;;6275898;22;20014;-85
2021/01/12 06:19:43;;;;;;;11.25;6.95;;;7.50;99.90;;;;;;6276424;22;20065;-84
2021/01/12 06:22:12;;;;;;;9.90;6.38;;;7.50;99.90;;;;;;6276121;22;20078;-85
2021/01/12 06:24:37;;;;;;;12.48;6.60;;;7.60;99.90;;;;;;6276679;22;20496;-86
2021/01/12 06:27:06;;;;;;;8.43;5.82;;;7.50;99.90;;;;;;6276709;22;20043;-85
2021/01/12 06:29:33;;;;;;;9.13;6.45;;;7.50;99.90;;;;;;6276719;22;20015;-84
2021/01/12 06:31:58;;;;;;;8.35;5.47;;;7.50;99.90;;;;;;6277244;22;20014;-84
2021/01/12 06:34:25;;;;;;;9.70;6.65;;;7.50;99.90;;;;;;6294141;22;20024;-82
2021/01/12 06:36:53;;;;;;;11.02;6.63;;;7.50;99.90;;;;;;6305497;22;20012;-85
2021/01/12 06:39:22;;;;;;;12.57;6.10;;;7.60;99.90;;;;;;6305908;22;19992;-85
2021/01/12 06:41:49;;;;;;;7.38;5.53;;;7.50;99.90;;;;;;6292098;22;20006;-86
2021/01/12 06:44:26;;;;;;;6.88;4.72;;;7.60;99.90;;;;;;6280665;22;20004;-85
2021/01/12 06:46:55;;;;;;;8.82;6.07;;;7.50;99.90;;;;;;6279089;22;20486;-84
2021/01/12 06:49:24;;;;;;;8.68;5.30;;;7.50;99.90;;;;;;6278140;22;20000;-85
2021/01/12 06:52:08;;;;;;;7.28;4.13;;;7.50;99.90;;;;;;6275880;22;20004;-85
2021/01/12 06:54:39;;;;;;;6.05;3.45;;;7.40;99.90;;;;;;6275880;22;20007;-85
2021/01/12 06:57:21;;;;;;;5.30;2.83;;;7.40;99.90;;;;;;6275954;22;20057;-85
2021/01/12 06:59:51;;;;;;;5.22;3.03;;;7.40;99.90;;;;;;6277379;22;20031;-85
2021/01/12 07:02:19;;;;;;;4.50;2.33;;;7.30;99.90;;;;;;6275735;22;20016;-85
2021/01/12 07:05:03;;;;;;;5.55;2.58;;;7.30;99.90;;;;;;6275532;22;20015;-85
2021/01/12 07:07:30;;;;;;;3.75;2.45;;;7.40;99.90;;;;;;6277191;22;20038;-86
2021/01/12 07:10:00;;;;;;;6.63;2.78;;;7.30;99.90;;;;;;6277308;22;20039;-85
2021/01/12 07:12:28;;;;;;;6.47;2.63;;;7.30;99.90;;;;;;6277659;22;20030;-84
2021/01/12 07:14:55;;;;;;;5.40;2.50;;;7.30;99.90;;;;;;6279295;22;19996;-85
2021/01/12 07:17:50;;;;;;;6.45;2.65;;;7.30;99.90;;;;;;6290116;22;20057;-86
2021/01/12 07:20:21;;;;;;;4.38;2.40;;;7.30;99.90;;;;;;6273085;22;20008;-85
2021/01/12 07:23:08;;;;;;;5.25;2.85;;;7.20;99.90;;;;;;6276458;22;20003;-84
2021/01/12 07:25:43;;;;;;;6.90;4.15;;;7.20;99.90;;;;;;6275895;22;20057;-84
2021/01/12 07:28:25;;;;;;;6.80;3.42;;;7.20;99.90;;;;;;6277299;22;20008;-84
2021/01/12 07:30:55;;;;;;;9.23;3.78;;;7.20;99.90;;;;;;6275660;22;20007;-85
2021/01/12 07:33:22;;;;;;;5.20;3.00;;;7.20;99.90;;;;;;6275761;22;20000;-84
2021/01/12 07:35:50;;;;;;;6.93;3.08;;;7.20;99.90;;;;;;6277116;22;20015;-84
2021/01/12 07:38:30;;;;;;;7.55;3.10;;;7.20;99.90;;;;;;6275425;22;20000;-85
2021/01/12 07:41:00;;;;;;;5.05;2.80;;;7.20;99.90;;;;;;6275158;22;20522;-84
2021/01/12 07:43:27;;;;;;;4.82;2.40;;;7.10;99.90;;;;;;6275012;22;20338;-83
2021/01/12 07:45:54;;;;;;;9.10;2.92;;;7.10;99.90;;;;;;6275724;22;20082;-86
2021/01/12 07:48:21;;;;;;;8.48;2.78;;;7.10;99.90;;;;;;6275512;22;20016;-86
2021/01/12 07:50:49;;;;;;;8.68;2.63;;;7.10;99.90;;;;;;6275544;22;20004;-86
2021/01/12 07:53:15;;;;;;;8.40;2.78;;;7.10;99.90;;;;;;6275794;22;20008;-84
2021/01/12 07:55:42;;;;;;;7.07;3.78;;;7.10;99.90;;;;;;6277929;22;20078;-85
2021/01/12 07:58:09;;;;;;;8.07;2.58;;;7.10;99.90;;;;;;6278288;22;20000;-85
2021/01/12 08:00:35;;;;;;;7.22;2.85;;;7.10;99.90;;;;;;6275337;22;20023;-84
2021/01/12 08:03:03;;;;;;;6.18;2.78;;;7.10;99.90;;;;;;6276651;22;20457;-84
2021/01/12 08:05:30;;;;;;;10.27;3.97;;;7.10;99.90;;;;;;6275556;22;20014;-84
2021/01/12 08:08:06;;;;;;;4.97;2.67;;;7.10;99.90;;;;;;6277596;22;20043;-84
2021/01/12 08:10:34;;;;;;;8.48;3.30;;;7.10;99.90;;;;;;6275612;22;20474;-84
2021/01/12 08:13:12;;;;;;;6.22;2.92;;;7.10;99.90;;;;;;6277352;22;20434;-84
2021/01/12 08:15:41;;;;;;;8.93;3.78;;;7.10;99.90;;;;;;6275725;22;20484;-85
2021/01/12 08:18:15;;;;;;;10.20;3.55;;;7.10;99.90;;;;;;6276111;22;20015;-84
2021/01/12 08:20:41;;;;;;;9.38;3.35;;;7.10;99.90;;;;;;6275130;22;20008;-85
2021/01/12 08:23:07;;;;;;;7.68;3.40;;;7.10;99.90;;;;;;6276836;22;20003;-84
2021/01/12 08:25:34;;;;;;;6.72;3.90;;;7.10;99.90;;;;;;6276972;22;20458;-84
2021/01/12 08:28:03;;;;;;;9.38;5.13;;;7.00;99.90;;;;;;6275179;22;20015;-84
2021/01/12 08:30:31;;;;;;;7.90;4.32;;;7.10;99.90;;;;;;6276535;22;19995;-85
2021/01/12 08:33:08;;;;;;;9.10;5.03;;;7.00;99.90;;;;;;6277103;22;20039;-85
2021/01/12 08:35:38;;;;;;;7.72;4.40;;;7.00;99.90;;;;;;6276586;22;20023;-83
2021/01/12 08:38:07;;;;;;;7.18;4.28;;;7.00;99.90;;;;;;6275405;22;20015;-83
2021/01/12 08:40:33;;;;;;;7.78;5.53;;;7.00;99.90;;;;;;6276848;22;20004;-84
2021/01/12 08:43:01;;;;;;;8.65;5.10;;;6.90;99.90;;;;;;6275053;22;20018;-84
2021/01/12 08:45:32;;;;;;;6.38;4.60;;;7.00;99.90;;;;;;6275319;22;20086;-84
2021/01/12 08:48:12;;;;;;;8.57;4.68;;;6.90;99.90;;;;;;6276850;22;20043;-84
2021/01/12 08:50:38;;;;;;;7.18;4.57;;;6.80;99.90;;;;;;6274864;22;20020;-83
2021/01/12 08:53:05;;;;;;;7.22;3.92;;;6.70;99.90;;;;;;6274777;22;20339;-84
2021/01/12 08:55:30;;;;;;;5.43;3.30;;;6.70;99.90;;;;;;6274829;22;20004;-85
2021/01/12 08:57:59;;;;;;;9.50;3.60;;;6.60;99.90;;;;;;6274951;22;20008;-84
2021/01/12 09:00:33;;;;;;;9.32;4.30;;;6.60;99.90;;;;;;6276379;22;20026;-84
2021/01/12 09:03:01;;;;;;;8.30;3.67;;;6.60;99.90;;;;;;6274076;22;20037;-84
2021/01/12 09:05:29;;;;;;;6.07;4.03;;;6.50;99.90;;;;;;6274878;22;20000;-84
2021/01/12 09:08:07;;;;;;;7.25;3.70;;;6.40;99.90;;;;;;6275095;22;20105;-83
2021/01/12 09:10:34;;;;;;;7.63;4.10;;;6.50;99.90;;;;;;6276501;22;20002;-83
2021/01/12 09:13:01;;;;;;;8.18;3.45;;;6.70;99.90;;;;;;6276301;22;20027;-84
2021/01/12 09:15:51;;;;;;;6.95;3.00;;;6.80;99.90;;;;;;6276237;22;20003;-85
2021/01/12 09:18:24;;;;;;;6.65;2.53;;;6.70;99.90;;;;;;6260766;22;20003;-84
2021/01/12 09:20:54;;;;;;;;;;;6.60;99.90;;;;;;6275394;22;20003;-86
2021/01/12 09:23:20;;;;;;;6.32;2.33;;;6.60;99.90;;;;;;6276932;22;19906;-84
2021/01/12 09:25:58;;;;;;;7.93;2.10;;;6.60;99.90;;;;;;6274825;22;20007;-84
2021/01/12 09:28:26;;;;;;;5.88;2.10;;;6.70;99.90;;;;;;6274895;22;20015;-84
2021/01/12 09:31:11;;;;;;;5.90;2.20;;;6.70;99.90;;;;;;6276897;22;20000;-85
2021/01/12 09:33:38;;;;;;;5.05;1.73;;;6.60;99.90;;;;;;6277732;22;20008;-84
2021/01/12 09:36:09;;;;;;;3.92;1.60;;;6.60;99.90;;;;;;6275740;22;20026;-85
2021/01/12 09:38:42;;;;;;;6.80;1.92;;;6.50;99.90;;;;;;6276623;22;20004;-83
2021/01/12 09:41:09;;;;;;;6.47;2.42;;;6.50;99.90;;;;;;6274526;22;20038;-84
2021/01/12 09:43:35;;;;;;;6.45;1.90;;;6.40;99.90;;;;;;6249876;22;20016;-84
2021/01/12 09:46:01;;;;;;;6.18;1.90;;;6.40;99.90;;;;;;6275300;22;20007;-84
2021/01/12 09:48:27;;;;;;;6.90;1.75;;;6.30;99.90;;;;;;6274753;22;20537;-84
2021/01/12 09:50:53;;;;;;;7.95;2.10;;;6.30;99.90;;;;;;6274645;22;20004;-84
2021/01/12 09:53:19;;;;;;;6.75;2.00;;;6.30;99.90;;;;;;6276609;22;20004;-86
2021/01/12 09:55:46;;;;;;;2.97;1.67;;;6.30;99.90;;;;;;6274987;22;20502;-85
2021/01/12 09:58:11;;;;;;;6.30;2.00;;;6.30;99.90;;;;;;6277000;22;20065;-85
2021/01/12 10:00:37;;;;;;;5.05;2.40;;;6.30;99.90;;;;;;6275321;22;20571;-88
2021/01/12 10:03:07;;;;;;;5.50;1.75;;;6.30;99.90;;;;;;6277393;22;20094;-86
2021/01/12 10:05:37;;;;;;;8.32;2.33;;;6.40;99.90;;;;;;6249630;22;20011;-87
2021/01/12 10:08:04;;;;;;;3.53;1.77;;;6.40;99.90;;;;;;6276667;22;20043;-88
2021/01/12 10:10:31;;;;;;;4.75;1.73;;;6.40;99.90;;;;;;6277554;22;20038;-86
2021/01/12 10:12:57;;;;;;;5.25;1.75;;;6.40;99.90;;;;;;6275360;22;20004;-86
2021/01/12 10:15:22;;;;;;;7.32;1.63;;;6.50;99.90;;;;;;6275162;22;20011;-85
2021/01/12 10:17:48;;;;;;;9.38;1.77;;;6.40;99.90;;;;;;6275902;22;20035;-86
2021/01/12 10:20:14;;;;;;;8.50;1.58;;;6.40;99.90;;;;;;6276547;22;20007;-86
2021/01/12 10:22:39;;;;;;;5.68;1.40;;;6.40;99.90;;;;;;6276376;22;20391;-86
2021/01/12 10:25:05;;;;;;;5.55;1.60;;;6.40;99.90;;;;;;6276308;22;20008;-85
2021/01/12 10:27:41;;;;;;;5.45;1.50;;;6.30;99.90;;;;;;6277958;22;20008;-88
2021/01/12 10:30:10;;;;;;;7.03;1.48;;;6.40;99.90;;;;;;6251893;22;20008;-86
2021/01/12 10:32:36;;;;;;;7.25;1.25;;;6.50;99.90;;;;;;6276272;22;20450;-85
2021/01/12 10:35:02;;;;;;;6.03;1.60;;;6.80;99.90;;;;;;6275868;22;20020;-86
2021/01/12 10:37:28;;;;;;;5.68;1.50;;;7.20;99.90;;;;;;6275991;22;20025;-87
2021/01/12 10:39:57;;;;;;;2.42;0.90;;;7.30;99.90;;;;;;6278302;22;20387;-85
2021/01/12 10:42:23;;;;;;;3.88;0.82;;;7.00;99.90;;;;;;6278487;22;20053;-86
2021/01/12 10:44:48;;;;;;;2.42;0.70;;;6.70;99.90;;;;;;6278557;22;20015;-86
2021/01/12 10:47:14;;;;;;;2.70;0.70;;;6.40;99.90;;;;;;6279436;22;20339;-87
2021/01/12 10:49:40;;;;;;;1.77;0.60;;;6.30;99.90;;;;;;6281155;22;20020;-84
2021/01/12 10:52:06;;;;;;;2.72;0.40;;;6.20;99.90;;;;;;6278251;22;19999;-86
2021/01/12 10:54:32;;;;;;;2.85;0.50;;;6.20;99.90;;;;;;6278243;22;20027;-86
2021/01/12 10:56:58;;;;;;;3.05;0.40;;;6.10;99.90;;;;;;6278906;22;20061;-86
2021/01/12 10:59:26;;;;;;;3.17;0.60;;;6.30;99.90;;;;;;6277655;22;20003;-84
2021/01/12 11:01:57;;;;;;;4.68;1.05;;;6.90;99.90;;;;;;6278987;22;20487;-86
2021/01/12 11:04:23;;;;;;;4.57;0.82;;;7.70;99.90;;;;;;6277883;22;20011;-85
2021/01/12 11:06:51;;;;;;;2.72;0.43;;;8.80;99.90;;;;;;6277791;22;20016;-86
2021/01/12 11:09:19;;;;;;;4.13;1.02;;;8.80;99.90;;;;;;6278723;22;20058;-88
2021/01/12 11:11:47;;;;;;;3.63;0.80;;;8.80;99.90;;;;;;6278611;22;20008;-88
2021/01/12 11:14:14;;;;;;;1.92;0.50;;;8.70;99.90;;;;;;6289577;22;19988;-89
2021/01/12 11:16:40;;;;;;;3.42;0.50;;;8.70;99.90;;;;;;6304898;22;20298;-89
2021/01/12 11:19:08;;;;;;;3.95;0.50;;;9.30;99.90;;;;;;6279347;22;20099;-88
2021/01/12 11:21:40;;;;;;;3.97;0.40;;;10.10;99.90;;;;;;6291646;22;20023;-88
2021/01/12 11:24:06;;;;;;;2.58;0.45;;;10.90;99.90;;;;;;6285550;22;20493;-87
2021/01/12 11:26:32;;;;;;;3.53;0.70;;;11.10;99.90;;;;;;6283474;22;20003;-90
2021/01/12 11:28:58;;;;;;;5.47;0.63;;;10.90;99.90;;;;;;6277816;22;20015;-88
2021/01/12 11:31:24;;;;;;;4.75;0.63;;;11.20;99.90;;;;;;6277397;22;19999;-87
2021/01/12 11:33:50;;;;;;;3.13;0.55;;;11.30;99.90;;;;;;6277170;22;20008;-85
2021/01/12 11:36:15;;;;;;;3.05;0.60;;;11.20;99.90;;;;;;6275247;22;20090;-87
2021/01/12 11:38:41;;;;;;;5.50;0.70;;;11.60;99.90;;;;;;6277903;22;20030;-87
2021/01/12 11:41:11;;;;;;;7.72;1.00;;;12.00;99.90;;;;;;6276681;22;20000;-87
2021/01/12 11:43:38;;;;;;;5.20;1.02;;;12.50;99.90;;;;;;6276665;22;20061;-87
2021/01/12 11:46:06;;;;;;;3.97;0.68;;;13.00;99.90;;;;;;6277129;22;20000;-88
2021/01/12 11:48:32;;;;;;;7.18;1.65;;;13.10;99.20;;;;;;6278555;22;20012;-86
2021/01/12 11:50:58;;;;;;;2.72;0.60;;;13.10;98.50;;;;;;6276944;22;20004;-87
2021/01/12 11:53:24;;;;;;;4.30;1.00;;;13.30;98.50;;;;;;6278903;22;20083;-85
2021/01/12 11:55:51;;;;;;;4.38;0.68;;;13.00;94.90;;;;;;6278019;22;20049;-86
2021/01/12 11:58:17;;;;;;;4.35;0.60;;;12.40;95.40;;;;;;6277631;22;20354;-86
2021/01/12 12:00:42;;;;;;;4.60;0.88;;;12.10;95.20;;;;;;6276427;22;20000;-86
2021/01/12 12:03:08;;;;;;;6.47;1.00;;;11.80;93.70;;;;;;6277952;22;20039;-87
2021/01/12 12:05:35;;;;;;;6.18;0.75;;;11.00;95.00;;;;;;6278414;22;20426;-86
2021/01/12 12:08:01;;;;;;;4.65;0.63;;;10.30;96.50;;;;;;6276765;22;20004;-86
2021/01/12 12:10:27;;;;;;;5.32;0.98;;;9.70;97.60;;;;;;6276162;22;20749;-86
2021/01/12 12:12:53;;;;;;;6.93;0.85;;;9.20;96.80;;;;;;6276563;22;20012;-86
2021/01/12 12:15:20;;;;;;;7.15;1.00;;;8.50;97.50;;;;;;6276444;22;20434;-86
2021/01/12 12:17:45;;;;;;;6.20;0.60;;;8.00;98.00;;;;;;6276478;22;20074;-85
2021/01/12 12:20:13;;;;;;;5.80;0.82;;;7.60;98.90;;;;;;6277644;22;19999;-87
2021/01/12 12:22:38;;;;;;;4.63;0.77;;;7.30;99.40;;;;;;6277116;22;20054;-85
2021/01/12 12:25:08;;;;;;;5.47;0.75;;;7.20;99.90;;;;;;6278979;22;20004;-86
2021/01/12 12:27:35;;;;;;;7.43;0.60;;;7.10;99.90;;;;;;6276614;22;20022;-89
2021/01/12 12:30:00;;;;;;;9.60;1.10;;;6.90;99.90;;;;;;6277869;22;19995;-87
2021/01/12 12:32:26;;;;;;;6.40;1.00;;;6.80;99.90;;;;;;6276199;22;20019;-87
2021/01/12 12:34:52;;;;;;;6.78;0.88;;;6.70;99.60;;;;;;6278103;22;20015;-86
2021/01/12 12:37:19;;;;;;;5.20;0.60;;;6.60;99.90;;;;;;6252648;22;20008;-88
2021/01/12 12:39:44;;;;;;;4.38;0.60;;;6.50;99.80;;;;;;6277125;22;20002;-88
2021/01/12 12:42:10;;;;;;;9.10;0.90;;;6.40;99.90;;;;;;6276446;22;20086;-86
2021/01/12 12:44:36;;;;;;;5.95;0.60;;;6.40;99.90;;;;;;6277517;22;20056;-87
2021/01/12 12:47:02;;;;;;;6.80;1.20;;;6.40;99.90;;;;;;6275719;22;20020;-88
2021/01/12 12:49:27;;;;;;;7.28;0.65;;;6.40;99.70;;;;;;6277820;22;20426;-87
2021/01/12 12:51:53;;;;;;;5.70;0.80;;;6.40;99.90;;;;;;6276629;22;20007;-88
2021/01/12 12:54:20;;;;;;;3.35;0.60;;;6.50;99.80;;;;;;6277125;22;20000;-87